Map

Track Data

SID SEASON NUMBER BASIN SUBBASIN NAME ISO_TIME NATURE LAT LON WMO_WIND WMO_PRES WMO_AGENCY TRACK_TYPE DIST2LAND LANDFALL IFLAG USA_AGENCY USA_ATCF_ID USA_LAT USA_LON USA_RECORD USA_STATUS USA_WIND USA_PRES USA_SSHS USA_R34_NE USA_R34_SE USA_R34_SW USA_R34_NW USA_R50_NE USA_R50_SE USA_R50_SW USA_R50_NW USA_R64_NE USA_R64_SE USA_R64_SW USA_R64_NW USA_POCI USA_ROCI USA_RMW USA_EYE TOKYO_LAT TOKYO_LON TOKYO_GRADE TOKYO_WIND TOKYO_PRES TOKYO_R50_DIR TOKYO_R50_LONG TOKYO_R50_SHORT TOKYO_R30_DIR TOKYO_R30_LONG TOKYO_R30_SHORT TOKYO_LAND CMA_LAT CMA_LON CMA_CAT CMA_WIND CMA_PRES HKO_LAT HKO_LON HKO_CAT HKO_WIND HKO_PRES NEWDELHI_LAT NEWDELHI_LON NEWDELHI_GRADE NEWDELHI_WIND NEWDELHI_PRES NEWDELHI_CI NEWDELHI_DP NEWDELHI_POCI REUNION_LAT REUNION_LON REUNION_TYPE REUNION_WIND REUNION_PRES REUNION_TNUM REUNION_CI REUNION_RMW REUNION_R34_NE REUNION_R34_SE REUNION_R34_SW REUNION_R34_NW REUNION_R50_NE REUNION_R50_SE REUNION_R50_SW REUNION_R50_NW REUNION_R64_NE REUNION_R64_SE REUNION_R64_SW REUNION_R64_NW BOM_LAT BOM_LON BOM_TYPE BOM_WIND BOM_PRES BOM_TNUM BOM_CI BOM_RMW BOM_R34_NE BOM_R34_SE BOM_R34_SW BOM_R34_NW BOM_R50_NE BOM_R50_SE BOM_R50_SW BOM_R50_NW BOM_R64_NE BOM_R64_SE BOM_R64_SW BOM_R64_NW BOM_ROCI BOM_POCI BOM_EYE BOM_POS_METHOD BOM_PRES_METHOD NADI_LAT NADI_LON NADI_CAT NADI_WIND NADI_PRES WELLINGTON_LAT WELLINGTON_LON WELLINGTON_WIND WELLINGTON_PRES DS824_LAT DS824_LON DS824_STAGE DS824_WIND DS824_PRES TD9636_LAT TD9636_LON TD9636_STAGE TD9636_WIND TD9636_PRES TD9635_LAT TD9635_LON TD9635_WIND TD9635_PRES TD9635_ROCI NEUMANN_LAT NEUMANN_LON NEUMANN_CLASS NEUMANN_WIND NEUMANN_PRES MLC_LAT MLC_LON MLC_CLASS MLC_WIND MLC_PRES USA_GUST BOM_GUST BOM_GUST_PER REUNION_GUST REUNION_GUST_PER USA_SEAHGT USA_SEARAD_NE USA_SEARAD_SE USA_SEARAD_SW USA_SEARAD_NW STORM_SPEED STORM_DIR
1967186N15220 1967 46 EP CP NOT_NAMED 1967-07-05 06:00:00 NR 14.8000 -140.000 25 cphc main 1657 1619 O_____________ cphc 14.8000 -140.000 25 -1 8 299
1967186N15220 1967 46 EP CP NOT_NAMED 1967-07-05 09:00:00 NR 14.9851 -140.347 main 1619 1571 P_____________ 14.9851 -140.347 25 -1 8 301
1967186N15220 1967 46 EP CP NOT_NAMED 1967-07-05 12:00:00 NR 15.2000 -140.700 25 cphc main 1571 1533 O_____________ cphc 15.2000 -140.700 25 -1 8 305
1967186N15220 1967 46 EP CP NOT_NAMED 1967-07-05 15:00:00 NR 15.4575 -141.057 main 1519 1482 P_____________ 15.4575 -141.057 25 -1 8 307
1967186N15220 1967 46 EP CP NOT_NAMED 1967-07-05 18:00:00 NR 15.7000 -141.400 25 cphc main 1482 1454 O_____________ cphc 15.7000 -141.400 25 -1 7 308
1967186N15220 1967 46 EP CP NOT_NAMED 1967-07-05 21:00:00 NR 15.8641 -141.603 main 1454 1410 P_____________ 15.8641 -141.603 25 -1 7 297
1967186N15220 1967 46 EP CP NOT_NAMED 1967-07-06 00:00:00 NR 16.0000 -142.000 25 cphc main 1410 1325 O_____________ cphc 16.0000 -142.000 25 -1 12 283
1967186N15220 1967 46 EP CP NOT_NAMED 1967-07-06 03:00:00 NR 16.1347 -142.836 main 1325 1207 P_____________ 16.1347 -142.836 25 -1 19 279
1967186N15220 1967 46 EP CP NOT_NAMED 1967-07-06 06:00:00 NR 16.3000 -144.000 25 cphc main 1197 1059 O_____________ cphc 16.3000 -144.000 25 -1 25 279
1967186N15220 1967 46 EP CP NOT_NAMED 1967-07-06 09:00:00 NR 16.5354 -145.355 main 1049 907 P_____________ 16.5354 -145.355 25 -1 27 281
1967186N15220 1967 46 EP CP NOT_NAMED 1967-07-06 12:00:00 NR 16.8000 -146.800 25 cphc main 897 770 O_____________ cphc 16.8000 -146.800 25 -1 27 281
1967186N15220 1967 46 EP CP NOT_NAMED 1967-07-06 15:00:00 NR 17.0414 -148.116 main 760 630 P_____________ 17.0414 -148.116 25 -1 25 281
1967186N15220 1967 46 EP CP NOT_NAMED 1967-07-06 18:00:00 NR 17.3000 -149.400 25 cphc main 620 491 O_____________ cphc 17.3000 -149.400 25 -1 25 284
1967186N15220 1967 46 EP CP NOT_NAMED 1967-07-06 21:00:00 NR 17.6368 -150.707 main 481 354 P_____________ 17.6368 -150.707 25 -1 26 284
1967186N15220 1967 46 EP CP NOT_NAMED 1967-07-07 00:00:00 NR 17.9000 -152.000 25 cphc main 344 245 O_____________ cphc 17.9000 -152.000 25 -1 24 277
1967186N15220 1967 46 EP CP NOT_NAMED 1967-07-07 03:00:00 NR 17.9365 -153.259 main 237 168 P_____________ 17.9365 -153.259 25 -1 24 270
1967186N15220 1967 46 EP CP NOT_NAMED 1967-07-07 06:00:00 NR 17.9000 -154.500 25 cphc main 165 111 O_____________ cphc 17.9000 -154.500 25 -1 24 270
1967186N15220 1967 46 EP CP NOT_NAMED 1967-07-07 09:00:00 NR 17.9492 -155.750 main 111 101 P_____________ 17.9492 -155.750 25 -1 24 272
1967186N15220 1967 46 EP CP NOT_NAMED 1967-07-07 12:00:00 NR 18.0000 -157.000 25 cphc main 168 168 O_____________ cphc 18.0000 -157.000 25 -1 24 271
1967186N15220 1967 46 EP CP NOT_NAMED 1967-07-07 15:00:00 NR 18.0067 -158.250 main 281 281 P_____________ 18.0067 -158.250 25 -1 24 270
1967186N15220 1967 46 EP CP NOT_NAMED 1967-07-07 18:00:00 NR 18.0000 -159.500 25 cphc main 397 397 O_____________ cphc 18.0000 -159.500 25 -1 24 270
1967186N15220 1967 46 EP CP NOT_NAMED 1967-07-07 21:00:00 NR 17.9991 -160.750 main 456 456 P_____________ 17.9991 -160.750 25 -1 24 270
1967186N15220 1967 46 EP CP NOT_NAMED 1967-07-08 00:00:00 NR 18.0000 -162.000 25 cphc main 502 O_____________ cphc 18.0000 -162.000 25 -1 24 270

About IBTrACS Database

This database is a web-friendly format of International Best Track Archive for Climate Stewardship (IBTrACS), a global best track data archive curated by NOAA dating back to 1842.

Updated: 2021-10-21